10/22 05:44 更新

弱い雨が降っている
3,000ftに雲が少し
4,000ftに雲が多い
12,000ftに雲が多い

地上風: 320°3kt

上空風(熊谷ウインドプロファイラ)
13,000ft: 230°17kt
10,000ft: 230°12kt
 7,000ft: 230°15kt
 3,000ft: 160°12kt

地上: 14℃
上空: -1.1℃

日没: 16:57

実況天気図


予想天気図


RJTJ 212044Z 32003KT 9999 -RA FEW030 BKN040 BKN120 14/11 Q1021 RMK 2SC030 6SC040 7AS120 A3015=

GPV気象予報
気象庁
日本気象協会

玉淀ダム放流量(1,000m3/sを超えた7時間後にDZ冠水)
太郎衛門橋テレメータ水位(11mでDZ冠水)

skydive.jp